Time;durP1;ratioP1;P1;durP2;ratioP2;P2;SDS_P1;SDS_P2;PMS_P1;PMS_P2;Temp;Humidity;BMP_temperature;BMP_pressure;BME280_temperature;BME280_humidity;BME280_pressure;Samples;Min_cycle;Max_cycle;Signal;HPM_P1;HPM_P2
2023/01/19 00:00:26;;;;;;;14.30;9.07;;;;;;;1.96;100.00;99988.13;5062479;28;20138;-63
2023/01/19 00:02:53;;;;;;;19.25;11.40;;;;;;;1.88;100.00;99981.84;5056234;28;20044;-64
2023/01/19 00:05:20;;;;;;;10.32;7.72;;;;;;;1.91;100.00;99979.03;5052280;28;20076;-61
2023/01/19 00:07:47;;;;;;;13.30;9.40;;;;;;;1.88;100.00;99981.84;5064101;28;20048;-62
2023/01/19 00:10:14;;;;;;;19.17;11.30;;;;;;;1.91;100.00;99971.28;5058891;28;20063;-61
2023/01/19 00:12:40;;;;;;;20.48;10.82;;;;;;;1.93;100.00;99972.00;5067256;28;20052;-62
2023/01/19 00:15:07;;;;;;;19.83;11.80;;;;;;;1.91;100.00;99974.69;5065723;28;20048;-62
2023/01/19 00:17:34;;;;;;;16.25;10.50;;;;;;;1.86;100.00;99978.53;5056700;28;20048;-60
2023/01/19 00:20:00;;;;;;;17.05;9.93;;;;;;;1.86;100.00;99970.78;5062419;28;20048;-60
2023/01/19 00:22:26;;;;;;;19.00;10.93;;;;;;;1.92;100.00;99971.19;5057159;28;20064;-61
2023/01/19 00:24:53;;;;;;;14.05;9.20;;;;;;;1.91;100.00;99979.03;5063992;28;20053;-60
2023/01/19 00:27:19;;;;;;;21.88;11.30;;;;;;;1.94;100.00;99974.47;5061086;28;20056;-62
2023/01/19 00:29:46;;;;;;;16.75;11.15;;;;;;;1.96;100.00;99976.94;5065980;28;20052;-62
2023/01/19 00:32:12;;;;;;;17.50;11.00;;;;;;;1.97;100.00;99982.00;5058734;28;20048;-61
2023/01/19 00:34:41;;;;;;;17.70;10.88;;;;;;;1.93;100.00;99978.00;5059720;28;20060;-62
2023/01/19 00:37:08;;;;;;;15.23;9.95;;;;;;;1.97;100.00;99973.41;5067154;28;20049;-62
2023/01/19 00:39:35;;;;;;;20.50;11.27;;;;;;;1.98;100.00;99978.50;5057699;28;20055;-61
2023/01/19 00:44:47;;;;;;;17.40;12.48;;;;;;;1.92;100.00;99968.59;5055252;28;20287;-61
2023/01/19 00:47:13;;;;;;;18.73;10.60;;;;;;;1.92;100.00;99968.59;5060915;28;20102;-60
2023/01/19 00:49:40;;;;;;;19.00;11.45;;;;;;;1.94;100.00;99965.88;5050936;28;20579;-62
2023/01/19 00:52:06;;;;;;;19.00;12.27;;;;;;;1.94;100.00;99977.06;5065892;28;20419;-64
2023/01/19 00:54:33;;;;;;;16.48;11.43;;;;;;;1.94;100.00;99966.72;5063913;28;20066;-62
2023/01/19 00:56:59;;;;;;;20.38;10.80;;;;;;;1.96;100.00;99967.44;5059067;28;20048;-61
2023/01/19 00:59:26;;;;;;;16.27;10.15;;;;;;;1.90;100.00;99980.81;5060276;28;20670;-61
2023/01/19 01:01:52;;;;;;;19.73;10.80;;;;;;;1.89;100.00;99966.22;5055729;28;20059;-64
2023/01/19 01:04:19;;;;;;;14.20;9.45;;;;;;;1.92;100.00;99958.25;5066824;28;20131;-62
2023/01/19 01:06:45;;;;;;;16.27;10.52;;;;;;;1.95;100.00;99962.38;5058540;28;20106;-62
2023/01/19 01:09:12;;;;;;;16.73;11.07;;;;;;;1.93;100.00;99967.63;5050558;28;20052;-62
2023/01/19 01:11:40;;;;;;;16.55;10.93;;;;;;;1.91;100.00;99966.94;5055995;28;20656;-63
2023/01/19 01:14:07;;;;;;;17.92;13.00;;;;;;;1.87;100.00;99962.09;5052674;28;20049;-62
2023/01/19 01:16:34;;;;;;;15.32;9.60;;;;;;;1.84;100.00;99963.13;5064896;28;20135;-62
2023/01/19 01:19:00;;;;;;;17.88;10.25;;;;;;;1.79;100.00;99965.25;5059417;28;20508;-62
2023/01/19 01:21:27;;;;;;;18.25;10.70;;;;;;;1.75;100.00;99966.41;5073042;28;20053;-61
2023/01/19 01:23:53;;;;;;;20.05;11.57;;;;;;;1.71;100.00;99981.31;5062075;28;20412;-62
2023/01/19 01:26:20;;;;;;;16.95;11.18;;;;;;;1.67;100.00;99958.38;5055692;28;20078;-61
2023/01/19 01:28:46;;;;;;;16.25;10.30;;;;;;;1.72;100.00;99966.59;5057773;28;20059;-62
2023/01/19 01:31:13;;;;;;;17.48;10.35;;;;;;;1.67;100.00;99960.97;5059418;28;20056;-62
2023/01/19 01:33:39;;;;;;;17.45;10.43;;;;;;;1.71;100.00;99954.63;5066086;28;20477;-62
2023/01/19 01:36:08;;;;;;;18.80;10.32;;;;;;;1.73;100.00;99963.09;5066541;28;20073;-62
2023/01/19 01:38:35;;;;;;;20.75;12.85;;;;;;;1.78;100.00;99963.56;5059498;28;20070;-62
2023/01/19 01:41:01;;;;;;;18.15;10.07;;;;;;;1.85;100.00;99956.22;5060113;28;20040;-62
2023/01/19 01:43:46;;;;;;;15.27;9.20;;;;;;;1.86;100.00;99957.84;5053117;28;20471;-62
2023/01/19 01:46:15;;;;;;;15.32;8.07;;;;;;;1.83;100.00;99961.50;5064999;28;20416;-60
2023/01/19 01:48:49;;;;;;;13.23;9.45;;;;;;;1.87;100.00;99957.75;5059742;28;20051;-61
2023/01/19 01:51:24;;;;;;;13.73;8.93;;;;;;;1.89;100.00;99953.28;5064877;28;20048;-63
2023/01/19 01:54:16;;;;;;;16.25;10.20;;;;;;;1.84;100.00;99955.38;5059589;28;20147;-64
2023/01/19 01:56:46;;;;;;;20.13;11.48;;;;;;;1.82;100.00;99961.59;5053338;28;20438;-62
2023/01/19 01:59:24;;;;;;;15.32;10.05;;;;;;;1.84;100.00;99952.78;5058176;28;20054;-62
2023/01/19 02:04:47;;;;;;;15.43;10.40;;;;;;;1.79;100.00;99941.97;5059941;28;20057;-63
2023/01/19 02:15:41;;;;;;;16.40;10.98;;;;;;;1.45;100.00;99965.09;5065932;28;21002;-62
2023/01/19 02:18:07;;;;;;;16.38;9.70;;;;;;;1.46;100.00;99968.47;5065925;28;20485;-61
2023/01/19 02:20:36;;;;;;;16.80;10.05;;;;;;;1.41;100.00;99968.78;5062430;28;20083;-61
2023/01/19 02:23:10;;;;;;;14.30;10.50;;;;;;;1.27;100.00;99966.34;5053395;28;20429;-62
2023/01/19 02:25:36;;;;;;;16.90;9.38;;;;;;;1.12;100.00;99968.28;5059614;28;20139;-63
2023/01/19 02:28:03;;;;;;;19.95;12.15;;;;;;;1.04;100.00;99986.03;5051627;28;20452;-62
2023/01/19 02:30:31;;;;;;;13.57;8.73;;;;;;;1.07;100.00;99978.91;5054962;28;20048;-62
2023/01/19 02:32:58;;;;;;;12.85;9.38;;;;;;;1.03;100.00;99964.56;5068915;28;20155;-64
2023/01/19 02:35:26;;;;;;;18.42;10.23;;;;;;;0.94;100.00;99973.78;5043185;28;20103;-63
2023/01/19 02:37:53;;;;;;;23.35;10.93;;;;;;;0.89;100.00;99973.25;5058313;28;20059;-65
2023/01/19 02:40:23;;;;;;;15.95;11.02;;;;;;;0.85;100.00;99979.56;5054893;28;20048;-63
2023/01/19 02:42:51;;;;;;;17.92;10.63;;;;;;;0.93;100.00;99976.47;5064553;28;20048;-63
2023/01/19 02:45:19;;;;;;;;;;;;;;;0.88;100.00;99984.53;5058955;28;20053;-62
2023/01/19 02:47:48;;;;;;;16.93;9.73;;;;;;;0.90;100.00;99987.84;5064552;28;19924;-65
2023/01/19 02:50:35;;;;;;;15.20;10.07;;;;;;;0.91;100.00;99991.22;5038471;28;20140;-65
2023/01/19 02:53:23;;;;;;;14.80;10.35;;;;;;;0.84;100.00;99984.81;5057307;28;20059;-64
2023/01/19 02:56:23;;;;;;;14.30;8.50;;;;;;;0.85;100.00;99981.31;5062902;28;20044;-63
2023/01/19 02:59:40;;;;;;;10.25;7.32;;;;;;;0.78;100.00;99984.31;5054652;28;20049;-63
2023/01/19 03:02:34;;;;;;;8.70;5.68;;;;;;;0.84;100.00;99984.81;4991774;28;20075;-65
2023/01/19 03:05:18;;;;;;;9.68;7.20;;;;;;;0.84;100.00;99983.06;5057534;28;20421;-62
2023/01/19 03:08:29;;;;;;;11.95;8.40;;;;;;;0.89;100.00;99983.59;5050226;28;20737;-62
2023/01/19 03:11:09;;;;;;;9.93;7.43;;;;;;;0.90;100.00;99986.97;5034705;28;20132;-63
2023/01/19 03:13:51;;;;;;;11.80;9.77;;;;;;;0.88;100.00;100001.75;5059837;28;20048;-64
2023/01/19 03:16:30;;;;;;;8.93;6.93;;;;;;;0.82;100.00;100000.41;5044662;28;20057;-69
2023/01/19 03:19:13;;;;;;;;;;;;;;;0.72;100.00;100004.56;5026195;28;20084;-68
2023/01/19 03:21:44;;;;;;;10.02;7.20;;;;;;;0.69;100.00;99999.63;5038389;28;20383;-69
2023/01/19 03:24:14;;;;;;;8.02;6.20;;;;;;;0.65;100.00;100004.16;5045738;28;20552;-67
2023/01/19 03:26:46;;;;;;;7.97;6.50;;;;;;;0.67;100.00;100006.63;5045416;28;20103;-70
2023/01/19 03:29:14;;;;;;;8.75;6.70;;;;;;;0.62;100.00;100022.41;5053511;28;20056;-69
2023/01/19 03:31:45;;;;;;;8.75;6.13;;;;;;;0.59;100.00;100026.03;5038722;28;20055;-69
2023/01/19 03:34:14;;;;;;;8.38;6.57;;;;;;;0.56;100.00;100031.38;5036962;28;20057;-68
2023/01/19 03:36:47;;;;;;;;;;;;;;;0.56;100.00;100025.41;5033218;28;20090;-68
2023/01/19 03:39:20;;;;;;;8.15;6.32;;;;;;;0.56;100.00;100036.53;5050620;28;20021;-69
2023/01/19 03:41:48;;;;;;;8.80;5.72;;;;;;;0.58;100.00;100029.53;5044956;28;20095;-69
2023/01/19 03:44:15;;;;;;;6.22;4.70;;;;;;;0.53;100.00;100031.59;5040444;28;20122;-68
2023/01/19 03:46:44;;;;;;;6.05;4.32;;;;;;;0.51;100.00;100030.03;5040297;28;20059;-67
2023/01/19 03:49:11;;;;;;;6.88;5.03;;;;;;;0.48;100.00;100023.31;5037663;28;20106;-69
2023/01/19 03:51:38;;;;;;;6.43;4.55;;;;;;;0.56;100.00;100030.56;5064740;28;20045;-69
2023/01/19 03:54:06;;;;;;;5.65;4.10;;;;;;;0.56;100.00;100035.72;5042751;28;20052;-69
2023/01/19 03:56:32;;;;;;;4.88;3.53;;;;;;;0.59;100.00;100033.78;5040257;28;20044;-69
2023/01/19 03:58:59;;;;;;;7.03;3.63;;;;;;;0.56;100.00;100033.97;5045146;28;20056;-68
2023/01/19 04:01:25;;;;;;;3.88;2.78;;;;;;;0.60;100.00;100042.34;5035202;28;20723;-66
2023/01/19 04:03:52;;;;;;;3.95;2.78;;;;;;;0.61;100.00;100044.00;5038608;28;20053;-69
2023/01/19 04:06:20;;;;;;;3.60;2.60;;;;;;;0.66;100.00;100039.34;5047413;28;20057;-68
2023/01/19 04:08:48;;;;;;;2.53;1.92;;;;;;;0.73;100.00;100039.78;5044451;28;20072;-69
2023/01/19 04:11:14;;;;;;;4.35;1.63;;;;;;;0.72;100.00;100038.94;5040249;28;20045;-68
2023/01/19 04:13:41;;;;;;;2.25;1.15;;;;;;;0.77;100.00;100043.81;5042997;28;20049;-67
2023/01/19 04:16:09;;;;;;;1.27;0.85;;;;;;;0.88;100.00;100048.22;5037446;28;20052;-69
2023/01/19 04:18:35;;;;;;;2.25;0.70;;;;;;;0.94;100.00;100043.50;5042167;28;20129;-68
2023/01/19 04:21:04;;;;;;;1.88;0.90;;;;;;;0.97;100.00;100045.03;5049526;28;20053;-68
2023/01/19 04:23:31;;;;;;;1.02;0.93;;;;;;;0.99;100.00;100049.16;5043227;28;20060;-67
2023/01/19 04:26:01;;;;;;;1.02;0.93;;;;;;;0.98;100.00;100049.25;5057829;28;20049;-68
2023/01/19 04:28:29;;;;;;;2.67;1.73;;;;;;;1.00;100.00;100057.75;5035048;28;20057;-68
2023/01/19 04:30:55;;;;;;;4.53;2.47;;;;;;;0.87;100.00;100051.75;5043721;28;20049;-67
2023/01/19 04:33:23;;;;;;;2.50;1.50;;;;;;;0.87;100.00;100042.25;5053093;28;20049;-68
2023/01/19 04:35:51;;;;;;;1.77;1.30;;;;;;;0.93;100.00;100049.56;5039557;28;20053;-67
2023/01/19 04:38:20;;;;;;;1.80;1.15;;;;;;;0.93;100.00;100064.25;5058228;28;20052;-69
2023/01/19 04:40:48;;;;;;;4.13;1.30;;;;;;;0.98;100.00;100070.75;5040794;28;20719;-69
2023/01/19 04:43:16;;;;;;;3.30;1.15;;;;;;;0.96;100.00;100077.78;5041822;28;20425;-69
2023/01/19 04:45:45;;;;;;;1.90;1.20;;;;;;;0.99;100.00;100064.66;5042321;28;20053;-67
2023/01/19 04:48:13;;;;;;;1.92;1.10;;;;;;;1.05;100.00;100067.75;5044571;28;20056;-68
2023/01/19 04:50:40;;;;;;;0.90;0.80;;;;;;;1.01;100.00;100050.81;5047447;28;20136;-67
2023/01/19 04:53:07;;;;;;;3.38;0.90;;;;;;;1.07;100.00;100061.56;5027839;28;20285;-67
2023/01/19 04:55:36;;;;;;;3.53;1.00;;;;;;;1.05;100.00;100060.00;5042690;28;20053;-69
2023/01/19 04:58:02;;;;;;;3.15;1.40;;;;;;;1.05;100.00;100067.75;5037699;28;20060;-67
2023/01/19 05:00:29;;;;;;;1.50;0.85;;;;;;;1.06;100.00;100067.66;5054712;28;20456;-69
2023/01/19 05:02:55;;;;;;;4.13;0.73;;;;;;;1.06;100.00;100067.66;5043836;28;20059;-68
2023/01/19 05:05:22;;;;;;;4.32;0.82;;;;;;;1.10;100.00;100068.28;5055245;28;20052;-68
2023/01/19 05:07:48;;;;;;;2.08;1.00;;;;;;;1.17;100.00;100069.50;5046246;28;20063;-68
2023/01/19 05:10:15;;;;;;;2.67;0.90;;;;;;;1.22;100.00;100080.38;5042933;28;20053;-69
2023/01/19 05:12:41;;;;;;;4.63;0.88;;;;;;;1.35;100.00;100080.34;5046551;28;20045;-67
2023/01/19 05:15:09;;;;;;;2.63;1.10;;;;;;;1.35;100.00;100088.94;5040442;28;20151;-69
2023/01/19 05:17:36;;;;;;;2.90;1.38;;;;;;;1.34;100.00;100083.88;5047663;28;20454;-70
2023/01/19 05:20:03;;;;;;;3.00;1.23;;;;;;;1.31;100.00;100087.50;5040025;28;20048;-69
2023/01/19 05:22:29;;;;;;;5.32;1.27;;;;;;;1.32;100.00;100081.38;5041905;28;20613;-70
2023/01/19 05:24:55;;;;;;;5.40;1.38;;;;;;;1.35;100.00;100093.25;5045045;28;20403;-69
2023/01/19 05:27:22;;;;;;;2.20;1.33;;;;;;;1.34;100.00;100095.03;5043601;28;20049;-68
2023/01/19 05:29:48;;;;;;;4.68;1.55;;;;;;;1.36;100.00;100094.94;5058067;28;20502;-68
2023/01/19 05:32:15;;;;;;;2.20;1.20;;;;;;;1.30;100.00;100093.59;5047731;28;20474;-69
2023/01/19 05:34:41;;;;;;;3.03;1.65;;;;;;;1.33;100.00;100095.13;5050076;28;20500;-68
2023/01/19 05:37:07;;;;;;;1.60;1.10;;;;;;;1.33;100.00;100095.13;5020148;28;20296;-69
2023/01/19 05:39:34;;;;;;;3.47;1.58;;;;;;;1.40;100.00;100093.78;5033977;28;20056;-69
2023/01/19 05:42:00;;;;;;;2.78;1.10;;;;;;;1.34;100.00;100104.53;5044582;28;20055;-68
2023/01/19 05:44:27;;;;;;;1.85;1.00;;;;;;;1.36;100.00;100113.00;5038106;28;20057;-71
2023/01/19 05:46:53;;;;;;;2.58;1.10;;;;;;;1.33;100.00;100106.31;5045365;28;20445;-65
2023/01/19 05:49:19;;;;;;;1.77;1.23;;;;;;;1.37;100.00;100112.91;5037547;28;20164;-66
2023/01/19 05:51:46;;;;;;;2.90;1.15;;;;;;;1.37;100.00;100118.09;5038536;28;20048;-68
2023/01/19 05:54:14;;;;;;;4.78;1.15;;;;;;;1.46;100.00;100116.63;5041655;28;20060;-67
2023/01/19 05:56:41;;;;;;;5.10;1.40;;;;;;;1.45;100.00;100109.81;5034894;28;20056;-67
2023/01/19 05:59:08;;;;;;;2.53;1.30;;;;;;;1.46;100.00;100124.38;5044954;28;20048;-66
2023/01/19 06:01:36;;;;;;;4.78;1.20;;;;;;;1.46;100.00;100114.03;5038569;28;20052;-68
2023/01/19 06:04:05;;;;;;;1.73;0.90;;;;;;;1.44;100.00;100118.47;5032353;28;20526;-68
2023/01/19 06:06:31;;;;;;;3.22;1.13;;;;;;;1.43;100.00;100131.50;5024898;28;20049;-66
2023/01/19 06:08:58;;;;;;;4.25;1.15;;;;;;;1.45;100.00;100137.41;5044491;28;20527;-68
2023/01/19 06:11:25;;;;;;;3.60;1.08;;;;;;;1.51;100.00;100131.81;5047649;28;20050;-67
2023/01/19 06:13:51;;;;;;;4.63;1.10;;;;;;;1.48;100.00;100132.84;5039661;28;20471;-65
2023/01/19 06:16:17;;;;;;;7.80;1.20;;;;;;;1.49;100.00;100139.69;5045463;28;20502;-68
2023/01/19 06:18:44;;;;;;;4.50;1.23;;;;;;;1.52;100.00;100138.63;5034023;28;20053;-68
2023/01/19 06:21:13;;;;;;;4.97;1.35;;;;;;;1.53;100.00;100142.88;5035480;28;20448;-66
2023/01/19 06:23:39;;;;;;;5.32;1.30;;;;;;;1.57;100.00;100144.34;5032472;28;20049;-67
2023/01/19 06:26:06;;;;;;;7.70;1.38;;;;;;;1.62;100.00;100149.19;5045759;28;20056;-67
2023/01/19 06:28:33;;;;;;;7.97;1.55;;;;;;;1.63;100.00;100146.50;5044285;28;20053;-67
2023/01/19 06:30:59;;;;;;;7.03;1.45;;;;;;;1.65;100.00;100165.31;5037526;28;20785;-68
2023/01/19 06:33:26;;;;;;;10.23;1.33;;;;;;;1.73;100.00;100168.19;5052018;28;20044;-67
2023/01/19 06:35:54;;;;;;;6.50;1.10;;;;;;;1.74;100.00;100169.81;5037951;28;20051;-68
2023/01/19 06:38:21;;;;;;;9.18;1.90;;;;;;;1.76;100.00;100170.56;5047571;28;20553;-68
2023/01/19 06:40:57;;;;;;;8.75;1.60;;;;;;;1.83;100.00;100168.38;5042272;28;20044;-67
2023/01/19 06:43:25;;;;;;;9.60;1.75;;;;;;;1.87;100.00;100177.59;5039028;28;20055;-66
2023/01/19 06:45:51;;;;;;;12.27;1.92;;;;;;;1.89;100.00;100178.31;5040098;28;20414;-65
2023/01/19 06:48:18;;;;;;;10.93;1.52;;;;;;;1.90;100.00;100179.97;5028144;28;20547;-67
2023/01/19 06:50:45;;;;;;;6.10;1.33;;;;;;;1.96;100.00;100181.28;5051314;28;20260;-67
2023/01/19 06:53:12;;;;;;;6.80;1.50;;;;;;;1.97;100.00;100185.53;5042685;28;20064;-66
2023/01/19 06:55:38;;;;;;;7.13;1.50;;;;;;;1.94;100.00;100184.00;5045743;28;20048;-67
2023/01/19 06:58:05;;;;;;;11.07;2.00;;;;;;;1.97;100.00;100195.88;5042114;28;20083;-67
2023/01/19 07:00:31;;;;;;;3.70;1.50;;;;;;;1.95;100.00;100200.34;5040062;28;20052;-66
2023/01/19 07:02:58;;;;;;;5.20;1.30;;;;;;;1.96;100.00;100210.56;5041826;28;20045;-67
2023/01/19 07:05:25;;;;;;;8.23;1.20;;;;;;;1.94;100.00;100212.44;5035144;28;20125;-68
2023/01/19 07:07:53;;;;;;;7.55;2.28;;;;;;;1.90;100.00;100221.34;5041539;28;20059;-66
2023/01/19 07:10:21;;;;;;;7.07;1.83;;;;;;;1.90;100.00;100218.75;5029985;28;20049;-67
2023/01/19 07:12:47;;;;;;;11.13;2.17;;;;;;;1.89;100.00;100222.25;5041037;28;20302;-68
2023/01/19 07:15:18;;;;;;;8.13;1.83;;;;;;;1.88;100.00;100223.22;5034478;28;20480;-69
2023/01/19 07:17:45;;;;;;;7.28;1.98;;;;;;;1.83;100.00;100243.38;5042180;28;20445;-69
2023/01/19 07:20:13;;;;;;;5.82;1.80;;;;;;;1.79;100.00;100244.53;5050919;28;20053;-69
2023/01/19 07:22:44;;;;;;;6.72;1.80;;;;;;;1.78;100.00;100256.63;5038019;28;20433;-68
2023/01/19 07:25:12;;;;;;;8.35;2.15;;;;;;;1.81;100.00;100278.03;5043469;28;20057;-69
2023/01/19 07:27:39;;;;;;;6.47;2.50;;;;;;;1.80;100.00;100282.38;5033190;28;20059;-67
2023/01/19 07:30:06;;;;;;;7.30;2.40;;;;;;;1.78;100.00;100292.00;5043513;28;20084;-69
2023/01/19 07:32:33;;;;;;;8.63;2.03;;;;;;;1.76;100.00;100289.53;5045209;28;20051;-67
2023/01/19 07:34:59;;;;;;;6.53;2.33;;;;;;;1.83;100.00;100284.75;5044215;28;20044;-70
2023/01/19 07:37:26;;;;;;;6.32;2.53;;;;;;;1.84;100.00;100291.56;5045165;28;20053;-69
2023/01/19 07:39:52;;;;;;;7.90;2.53;;;;;;;1.80;100.00;100282.38;5032153;28;20052;-70
2023/01/19 07:42:19;;;;;;;3.88;2.10;;;;;;;1.83;100.00;100284.75;5035999;28;20052;-66
2023/01/19 07:44:45;;;;;;;6.97;2.65;;;;;;;1.83;100.00;100292.53;5038241;28;20053;-69
2023/01/19 07:47:12;;;;;;;11.85;2.90;;;;;;;1.78;100.00;100286.81;5044668;28;20053;-68
2023/01/19 07:49:38;;;;;;;5.47;2.85;;;;;;;1.75;100.00;100297.38;5036290;28;20135;-68
2023/01/19 07:52:05;;;;;;;5.53;2.35;;;;;;;1.75;100.00;100299.97;5042729;28;20060;-69
2023/01/19 07:54:31;;;;;;;8.43;2.97;;;;;;;1.77;100.00;100298.94;5038143;28;20056;-69
2023/01/19 07:56:59;;;;;;;9.07;2.97;;;;;;;1.78;100.00;100308.34;5032159;28;20048;-69
2023/01/19 07:59:29;;;;;;;8.43;2.90;;;;;;;1.77;100.00;100311.84;5036824;28;20462;-69
2023/01/19 08:01:58;;;;;;;6.40;2.35;;;;;;;1.75;100.00;100308.53;5040991;28;20052;-69
2023/01/19 08:04:27;;;;;;;10.38;3.25;;;;;;;1.70;100.00;100314.94;5042571;28;20095;-69
2023/01/19 08:06:55;;;;;;;8.57;2.90;;;;;;;1.69;100.00;100321.06;5034575;28;20053;-67
2023/01/19 08:09:22;;;;;;;9.57;2.97;;;;;;;1.67;100.00;100330.69;5037797;28;20052;-69
2023/01/19 08:11:49;;;;;;;7.45;2.95;;;;;;;1.76;100.00;100327.47;5036005;28;20151;-65
2023/01/19 08:14:15;;;;;;;8.77;3.13;;;;;;;1.73;100.00;100331.09;5038751;28;20746;-68
2023/01/19 08:16:42;;;;;;;6.88;3.30;;;;;;;1.78;100.00;100336.81;5041982;28;20049;-69
2023/01/19 08:19:08;;;;;;;9.70;3.78;;;;;;;1.82;100.00;100340.00;5031494;28;20052;-69
2023/01/19 08:21:35;;;;;;;8.65;3.83;;;;;;;1.81;100.00;100343.53;5047615;28;20052;-67
2023/01/19 08:24:01;;;;;;;9.45;4.15;;;;;;;1.73;100.00;100344.03;5035000;28;20086;-69
2023/01/19 08:26:32;;;;;;;9.88;4.50;;;;;;;1.77;100.00;100340.31;5038993;28;20049;-69
2023/01/19 08:29:01;;;;;;;14.48;3.75;;;;;;;1.78;100.00;100347.16;5044115;28;20044;-66
2023/01/19 08:31:28;;;;;;;11.13;4.70;;;;;;;1.84;100.00;100345.88;5044454;28;20057;-69
2023/01/19 08:33:55;;;;;;;8.57;4.60;;;;;;;1.84;100.00;100355.41;5047341;28;20132;-70
2023/01/19 08:36:22;;;;;;;11.60;4.97;;;;;;;1.87;100.00;100358.63;5019744;28;20788;-68
2023/01/19 08:38:49;;;;;;;8.35;4.80;;;;;;;1.94;100.00;100375.41;5034576;28;20494;-69
2023/01/19 08:41:15;;;;;;;12.82;4.82;;;;;;;1.95;100.00;100379.63;5034176;28;20053;-68
2023/01/19 08:43:44;;;;;;;10.38;4.80;;;;;;;2.02;100.00;100382.66;5035354;28;20072;-71
2023/01/19 08:46:11;;;;;;;8.07;5.57;;;;;;;2.07;100.00;100384.94;5039145;28;20049;-69
2023/01/19 08:48:37;;;;;;;12.45;6.20;;;;;;;2.12;100.00;100386.28;5035859;28;20059;-70
2023/01/19 08:51:05;;;;;;;14.48;6.32;;;;;;;2.14;100.00;100381.84;5036035;28;20057;-68
2023/01/19 08:53:31;;;;;;;13.32;6.00;;;;;;;2.20;100.00;100388.34;5034931;28;20631;-69
2023/01/19 08:56:01;;;;;;;14.57;5.68;;;;;;;2.23;100.00;100385.53;5029312;28;20045;-70
2023/01/19 08:58:28;;;;;;;19.13;6.30;;;;;;;2.25;100.00;100381.09;5039447;28;20136;-70
2023/01/19 09:00:54;;;;;;;11.40;5.07;;;;;;;2.30;100.00;100389.38;5045008;28;20055;-68
2023/01/19 09:03:21;;;;;;;21.45;6.45;;;;;;;2.30;100.00;100388.56;5035258;28;20053;-67
2023/01/19 09:05:48;;;;;;;13.68;6.55;;;;;;;2.32;100.00;100399.66;5039566;28;20059;-67
2023/01/19 09:08:15;;;;;;;19.05;6.38;;;;;;;2.32;100.00;100399.66;5044913;28;20053;-69
2023/01/19 09:10:47;;;;;;;13.05;6.18;;;;;;;2.36;100.00;100401.91;5037036;28;20063;-67
2023/01/19 09:13:19;;;;;;;18.45;6.20;;;;;;;2.31;100.00;100409.19;5047400;28;20550;-69
2023/01/19 09:15:46;;;;;;;14.70;6.63;;;;;;;2.34;100.00;100402.97;5041518;28;20060;-69
2023/01/19 09:18:15;;;;;;;18.10;6.32;;;;;;;2.39;100.00;100406.03;5038206;28;20111;-68
2023/01/19 09:20:43;;;;;;;15.80;6.68;;;;;;;2.34;100.00;100414.13;5035122;28;20059;-66
2023/01/19 09:23:12;;;;;;;14.20;6.22;;;;;;;2.32;100.00;100416.00;5044146;28;20044;-67
2023/01/19 09:25:39;;;;;;;;;;;;;;;2.41;100.00;100414.56;5049481;28;20476;-68
2023/01/19 09:28:08;;;;;;;13.95;5.70;;;;;;;2.47;100.00;100421.06;5032024;28;19959;-66
2023/01/19 09:30:36;;;;;;;13.98;6.28;;;;;;;2.46;100.00;100420.25;5041593;28;20156;-68
2023/01/19 09:33:05;;;;;;;10.85;6.13;;;;;;;2.45;100.00;100420.34;5038152;28;20081;-68
2023/01/19 09:35:32;;;;;;;12.73;7.18;;;;;;;2.47;100.00;100424.50;5040281;28;20052;-68
2023/01/19 09:37:59;;;;;;;14.20;6.13;;;;;;;2.47;100.00;100421.91;5038015;28;20061;-69
2023/01/19 09:40:27;;;;;;;15.32;6.32;;;;;;;2.50;100.00;100426.88;5043130;28;20057;-68
2023/01/19 09:43:11;;;;;;;15.95;5.72;;;;;;;2.54;100.00;100428.31;5043866;28;20048;-69
2023/01/19 09:45:50;;;;;;;22.42;6.50;;;;;;;2.59;100.00;100422.84;5034997;28;20139;-69
2023/01/19 09:48:27;;;;;;;20.02;5.90;;;;;;;2.64;100.00;100425.09;5038749;28;20075;-67
2023/01/19 09:50:58;;;;;;;12.32;5.47;;;;;;;2.67;100.00;100428.31;5034446;28;20868;-66
2023/01/19 09:53:50;;;;;;;11.57;5.30;;;;;;;2.70;100.00;100428.09;5043054;28;20041;-68
2023/01/19 09:56:19;;;;;;;17.55;6.53;;;;;;;2.77;100.00;100434.50;5020762;28;20053;-69
2023/01/19 09:58:50;;;;;;;12.50;4.50;;;;;;;2.81;100.00;100429.97;5049416;28;20053;-68
2023/01/19 10:01:33;;;;;;;17.30;4.57;;;;;;;2.88;100.00;100432.94;5028480;28;20057;-68
2023/01/19 10:04:12;;;;;;;13.80;3.88;;;;;;;2.96;100.00;100444.44;5038663;28;20053;-69
2023/01/19 10:06:39;;;;;;;10.52;3.95;;;;;;;3.00;100.00;100442.47;5036306;28;20061;-66
2023/01/19 10:09:25;;;;;;;14.25;3.40;;;;;;;3.11;100.00;100437.34;5042146;28;20068;-68
2023/01/19 10:11:58;;;;;;;11.43;3.35;;;;;;;3.23;100.00;100435.66;5044871;28;20057;-67
2023/01/19 10:14:35;;;;;;;10.20;2.22;;;;;;;3.33;100.00;100443.59;5028450;28;20049;-68
2023/01/19 10:17:14;;;;;;;27.20;3.78;;;;;;;3.41;100.00;100443.06;5028752;28;20048;-69
2023/01/19 10:19:46;;;;;;;14.20;2.38;;;;;;;3.47;100.00;100443.47;5044705;28;20055;-69
2023/01/19 10:22:22;;;;;;;10.77;1.85;;;;;;;3.54;100.00;100446.44;5043603;28;20053;-68
2023/01/19 10:24:58;;;;;;;11.88;1.67;;;;;;;3.56;100.00;100457.53;5039289;28;20665;-68
2023/01/19 10:27:28;;;;;;;8.50;1.73;;;;;;;3.58;100.00;100455.66;5043092;28;20696;-68
2023/01/19 10:29:56;;;;;;;13.05;1.77;;;;;;;3.55;100.00;100458.47;5036536;28;20056;-68
2023/01/19 10:32:29;;;;;;;12.65;2.53;;;;;;;3.58;100.00;100460.03;5048917;28;20049;-69
2023/01/19 10:34:58;;;;;;;9.18;2.85;;;;;;;3.54;100.00;100455.03;5043570;28;20049;-68
2023/01/19 10:37:31;;;;;;;13.50;2.90;;;;;;;3.58;100.00;100463.44;5038624;28;20531;-68
2023/01/19 10:40:09;;;;;;;11.52;3.03;;;;;;;3.50;100.00;100456.19;5036090;28;20135;-69
2023/01/19 10:42:39;;;;;;;10.20;3.15;;;;;;;3.50;100.00;100458.78;5032149;28;20080;-68
2023/01/19 10:45:16;;;;;;;12.57;3.78;;;;;;;3.47;100.00;100461.63;5041253;28;20059;-69
2023/01/19 10:47:45;;;;;;;12.10;4.25;;;;;;;3.43;100.00;100459.34;5034713;28;20076;-69
2023/01/19 10:50:29;;;;;;;14.90;4.50;;;;;;;3.44;100.00;100463.59;5045214;28;20061;-68
2023/01/19 10:52:58;;;;;;;15.07;4.85;;;;;;;3.39;100.00;100456.13;5038810;28;20825;-67
2023/01/19 10:55:37;;;;;;;13.10;4.72;;;;;;;3.42;100.00;100466.28;5040132;28;20056;-69
2023/01/19 10:58:06;;;;;;;14.13;4.82;;;;;;;3.40;100.00;100462.16;5038358;28;20167;-65
2023/01/19 11:00:36;;;;;;;19.48;4.93;;;;;;;3.48;100.00;100465.84;5039686;28;20059;-68
2023/01/19 11:03:21;;;;;;;14.15;5.10;;;;;;;3.51;100.00;100463.06;5043992;28;20041;-68
2023/01/19 11:05:48;;;;;;;16.90;5.68;;;;;;;3.52;100.00;100464.69;5035751;28;20063;-68
2023/01/19 11:08:27;;;;;;;25.10;7.00;;;;;;;3.47;100.00;100461.63;5054105;28;20106;-67
2023/01/19 11:11:01;;;;;;;13.40;5.72;;;;;;;3.52;100.00;100463.88;5022004;28;20163;-65
2023/01/19 11:13:27;;;;;;;12.10;5.20;;;;;;;3.55;100.00;100467.09;5043285;28;20067;-68
2023/01/19 11:15:57;;;;;;;15.23;6.30;;;;;;;3.64;100.00;100475.13;5044643;28;20053;-65
2023/01/19 11:18:36;;;;;;;22.08;7.15;;;;;;;3.70;100.00;100475.50;5039044;28;20520;-67
2023/01/19 11:21:05;;;;;;;;;;;;;;;3.78;100.00;100477.56;5032190;28;20053;-68
2023/01/19 11:23:41;;;;;;;14.65;7.55;;;;;;;3.83;100.00;100478.06;5022554;28;19934;-68
2023/01/19 11:26:46;;;;;;;15.70;7.97;;;;;;;3.84;100.00;100481.47;5040478;28;20527;-68
2023/01/19 11:29:22;;;;;;;16.30;8.02;;;;;;;3.92;100.00;100473.97;5034433;28;20103;-69
2023/01/19 11:31:51;;;;;;;19.67;8.38;;;;;;;3.83;100.00;100479.84;5046290;28;20049;-68
2023/01/19 11:34:29;;;;;;;16.15;8.32;;;;;;;3.99;100.00;100469.16;5021810;28;20805;-69
2023/01/19 11:37:15;;;;;;;24.23;7.90;;;;;;;4.10;100.00;100472.63;5045721;28;20127;-66
2023/01/19 11:39:45;;;;;;;17.25;7.68;;;;;;;4.00;100.00;100469.06;5045392;28;20053;-69
2023/01/19 11:42:13;;;;;;;12.82;7.97;;;;;;;4.01;100.00;100480.25;5044595;28;20122;-68
2023/01/19 11:45:02;;;;;;;13.55;7.60;;;;;;;4.16;100.00;100471.34;5038874;28;20048;-69
2023/01/19 11:47:40;;;;;;;22.13;8.00;;;;;;;4.19;100.00;100471.09;5044198;28;20052;-68